Time;durP1;ratioP1;P1;durP2;ratioP2;P2;SDS_P1;SDS_P2;PMS_P1;PMS_P2;Temp;Humidity;BMP_temperature;BMP_pressure;BME280_temperature;BME280_humidity;BME280_pressure;Samples;Min_cycle;Max_cycle;Signal;HPM_P1;HPM_P2
2023/06/12 00:00:54;;;;;;;4.93;3.20;;;27.10;49.50;;;;;;5059566;28;20544;-77
2023/06/12 00:03:26;;;;;;;4.90;2.75;;;27.00;49.60;;;;;;5041133;28;20051;-77
2023/06/12 00:05:59;;;;;;;2.38;2.17;;;27.00;49.60;;;;;;5052432;28;20099;-77
2023/06/12 00:08:30;;;;;;;4.75;2.85;;;27.00;49.60;;;;;;5034958;28;20048;-77
2023/06/12 00:10:58;;;;;;;3.65;2.78;;;27.00;49.60;;;;;;5053064;28;20480;-77
2023/06/12 00:13:24;;;;;;;3.45;2.08;;;27.00;49.60;;;;;;5039563;28;20479;-78
2023/06/12 00:15:50;;;;;;;4.25;2.10;;;27.00;49.60;;;;;;5066112;28;20104;-77
2023/06/12 00:18:17;;;;;;;2.60;2.35;;;27.00;49.60;;;;;;5052473;28;20025;-77
2023/06/12 00:20:43;;;;;;;3.83;2.42;;;26.90;49.00;;;;;;5052792;28;20131;-77
2023/06/12 00:23:12;;;;;;;4.25;2.67;;;27.10;49.60;;;;;;5051522;28;20060;-77
2023/06/12 00:25:41;;;;;;;2.67;2.35;;;26.90;49.00;;;;;;5038279;28;20029;-77
2023/06/12 00:28:07;;;;;;;3.65;2.40;;;26.90;49.10;;;;;;5053997;28;20717;-77
2023/06/12 00:30:33;;;;;;;7.00;2.60;;;27.10;49.60;;;;;;5056241;28;20056;-77
2023/06/12 00:33:00;;;;;;;3.95;2.50;;;26.90;49.10;;;;;;5066749;28;20061;-77
2023/06/12 00:35:26;;;;;;;3.05;2.08;;;26.90;49.20;;;;;;5052259;28;20072;-77
2023/06/12 00:37:52;;;;;;;4.22;2.28;;;26.90;49.20;;;;;;5051656;28;20064;-77
2023/06/12 00:40:18;;;;;;;2.33;2.13;;;27.00;49.80;;;;;;5051241;28;20064;-77
2023/06/12 00:42:47;;;;;;;7.10;2.95;;;27.00;49.90;;;;;;5053522;28;20043;-77
2023/06/12 00:45:18;;;;;;;3.95;2.40;;;26.90;49.40;;;;;;5061287;28;20132;-77
2023/06/12 00:47:53;;;;;;;3.08;2.53;;;27.00;50.00;;;;;;5032419;28;20041;-77
2023/06/12 00:50:25;;;;;;;3.80;2.47;;;27.00;50.00;;;;;;5072479;28;20036;-76
2023/06/12 00:52:53;;;;;;;5.15;2.22;;;27.00;50.00;;;;;;5072365;28;20475;-77
2023/06/12 00:55:19;;;;;;;3.38;2.15;;;26.90;49.50;;;;;;5043235;28;20033;-77
2023/06/12 00:57:47;;;;;;;4.05;2.13;;;26.90;49.50;;;;;;5034641;28;20025;-77
2023/06/12 01:00:17;;;;;;;4.40;1.80;;;27.10;50.00;;;;;;5060874;28;20126;-77
2023/06/12 01:03:05;;;;;;;2.90;2.10;;;27.00;50.00;;;;;;5051023;28;20033;-77
2023/06/12 01:05:37;;;;;;;4.15;1.88;;;26.90;49.50;;;;;;5031167;28;20116;-77
2023/06/12 01:08:28;;;;;;;5.35;2.38;;;27.00;50.00;;;;;;5030989;28;20021;-78
2023/06/12 01:11:08;;;;;;;2.85;2.10;;;26.90;49.50;;;;;;5030919;28;20181;-77
2023/06/12 01:13:35;;;;;;;2.92;2.15;;;27.00;50.10;;;;;;5036699;28;20025;-77
2023/06/12 01:16:01;;;;;;;5.95;2.42;;;27.00;50.10;;;;;;5037341;28;20075;-77
2023/06/12 01:18:29;;;;;;;2.50;2.05;;;27.00;50.10;;;;;;5048132;28;20120;-77
2023/06/12 01:20:58;;;;;;;5.22;2.22;;;26.90;49.50;;;;;;5030247;28;20069;-77
2023/06/12 01:23:47;;;;;;;3.28;1.70;;;26.80;49.50;;;;;;5030438;28;20041;-77
2023/06/12 01:26:53;;;;;;;3.63;2.05;;;26.90;49.60;;;;;;5031109;28;20064;-77
2023/06/12 01:29:22;;;;;;;1.83;1.55;;;27.00;50.10;;;;;;5040531;28;20132;-77
2023/06/12 01:31:56;;;;;;;3.90;1.77;;;26.90;49.60;;;;;;5045488;28;20411;-77
2023/06/12 01:34:32;;;;;;;3.13;2.13;;;26.90;49.70;;;;;;5038111;28;20106;-78
2023/06/12 01:37:17;;;;;;;2.45;1.85;;;27.00;50.30;;;;;;5032998;28;20102;-77
2023/06/12 01:39:54;;;;;;;2.22;1.80;;;26.90;49.80;;;;;;5032895;28;20061;-77
2023/06/12 01:42:23;;;;;;;2.17;1.80;;;26.90;49.80;;;;;;5032641;28;20048;-77
2023/06/12 01:44:52;;;;;;;3.90;1.52;;;26.90;49.80;;;;;;5063113;28;20124;-77
2023/06/12 01:47:19;;;;;;;2.55;1.83;;;26.90;49.80;;;;;;5068761;28;20049;-77
2023/06/12 01:49:47;;;;;;;5.20;1.90;;;26.90;49.80;;;;;;5052723;28;20047;-77
2023/06/12 01:52:13;;;;;;;3.38;1.88;;;26.80;49.80;;;;;;5052601;28;20037;-77
2023/06/12 01:54:40;;;;;;;2.53;1.73;;;26.90;49.80;;;;;;5052538;28;20365;-77
2023/06/12 01:57:08;;;;;;;4.72;2.10;;;27.10;50.40;;;;;;5052400;28;20107;-77
2023/06/12 01:59:35;;;;;;;4.28;2.13;;;26.90;49.80;;;;;;5047503;28;20430;-77
2023/06/12 02:02:02;;;;;;;1.67;1.50;;;27.00;50.40;;;;;;5047995;28;20043;-77
2023/06/12 02:04:30;;;;;;;1.10;1.10;;;27.10;50.40;;;;;;5052389;28;20041;-77
2023/06/12 02:06:59;;;;;;;2.00;1.52;;;27.00;50.30;;;;;;5047933;28;20041;-77
2023/06/12 02:09:27;;;;;;;3.97;1.80;;;26.90;49.80;;;;;;5033479;28;20086;-77
2023/06/12 02:11:53;;;;;;;2.72;1.48;;;26.90;49.70;;;;;;5050344;28;20421;-77
2023/06/12 02:14:20;;;;;;;1.50;1.40;;;26.90;49.80;;;;;;5043064;28;20041;-77
2023/06/12 02:16:47;;;;;;;2.25;1.60;;;26.90;49.70;;;;;;5029518;28;20519;-77
2023/06/12 02:19:14;;;;;;;2.75;1.20;;;27.00;50.30;;;;;;5019499;28;20088;-77
2023/06/12 02:21:40;;;;;;;3.90;1.25;;;26.90;49.70;;;;;;5051018;28;20087;-77
2023/06/12 02:24:07;;;;;;;3.47;1.40;;;26.80;49.80;;;;;;5031269;28;20072;-77
2023/06/12 02:26:33;;;;;;;3.20;1.70;;;26.80;49.80;;;;;;5032712;28;20029;-77
2023/06/12 02:29:11;;;;;;;1.48;1.40;;;26.80;49.90;;;;;;5032176;28;20117;-77
2023/06/12 02:31:42;;;;;;;1.15;1.05;;;26.80;49.90;;;;;;5015684;28;20106;-77
2023/06/12 02:34:10;;;;;;;1.65;1.20;;;26.80;50.00;;;;;;5031826;28;20041;-77
2023/06/12 02:36:39;;;;;;;1.52;1.27;;;26.80;50.00;;;;;;5015755;28;20066;-77
2023/06/12 02:39:07;;;;;;;1.13;1.00;;;26.80;50.00;;;;;;5015937;28;20045;-77
2023/06/12 02:41:34;;;;;;;1.17;1.08;;;26.80;50.00;;;;;;5032331;28;20037;-77
2023/06/12 02:44:00;;;;;;;1.42;1.30;;;26.90;50.00;;;;;;5031186;28;20037;-77
2023/06/12 02:46:26;;;;;;;0.77;0.77;;;26.90;50.00;;;;;;5034951;28;20050;-77
2023/06/12 02:48:53;;;;;;;0.88;0.88;;;27.00;50.60;;;;;;5032993;28;20112;-77
2023/06/12 02:51:20;;;;;;;2.58;1.23;;;26.80;50.00;;;;;;5033493;28;20033;-77
2023/06/12 02:53:45;;;;;;;0.82;0.82;;;26.90;50.00;;;;;;5034605;28;20038;-77
2023/06/12 02:56:11;;;;;;;1.23;0.90;;;27.00;50.60;;;;;;5074816;28;20029;-77
2023/06/12 02:58:39;;;;;;;1.55;0.93;;;26.90;50.00;;;;;;5064387;28;20042;-77
2023/06/12 03:01:06;;;;;;;2.15;1.20;;;26.80;50.00;;;;;;5070847;28;20037;-77
2023/06/12 03:03:35;;;;;;;1.13;1.02;;;27.00;50.60;;;;;;5055191;28;20125;-77
2023/06/12 03:06:03;;;;;;;1.15;1.02;;;26.90;50.00;;;;;;5052418;28;20025;-77
2023/06/12 03:08:29;;;;;;;3.65;1.00;;;26.80;50.00;;;;;;5035727;28;20037;-77
2023/06/12 03:10:55;;;;;;;1.38;0.90;;;26.90;50.00;;;;;;5058970;28;20107;-77
2023/06/12 03:13:21;;;;;;;3.15;1.13;;;26.80;50.10;;;;;;5053215;28;20033;-77
2023/06/12 03:15:47;;;;;;;2.72;0.80;;;26.90;50.10;;;;;;5041841;28;20032;-77
2023/06/12 03:18:14;;;;;;;1.80;1.05;;;26.90;50.20;;;;;;5072611;28;20043;-77
2023/06/12 03:20:40;;;;;;;0.70;0.70;;;26.80;50.20;;;;;;5061073;28;20092;-77
2023/06/12 03:23:06;;;;;;;0.60;0.60;;;26.80;50.20;;;;;;5052165;28;20057;-77
2023/06/12 03:25:32;;;;;;;1.00;0.90;;;26.80;50.20;;;;;;5048398;28;20028;-77
2023/06/12 03:27:58;;;;;;;0.75;0.75;;;26.70;50.30;;;;;;5068695;28;20059;-77
2023/06/12 03:30:24;;;;;;;0.82;0.73;;;26.80;50.20;;;;;;5060161;28;20476;-77
2023/06/12 03:32:52;;;;;;;0.80;0.80;;;26.80;50.30;;;;;;5071281;28;20032;-77
2023/06/12 03:35:18;;;;;;;0.82;0.75;;;26.70;50.30;;;;;;5064346;28;20025;-77
2023/06/12 03:37:46;;;;;;;3.28;0.77;;;26.70;50.30;;;;;;5050118;28;20076;-78
2023/06/12 03:40:14;;;;;;;1.95;0.70;;;26.80;50.30;;;;;;5033361;28;20063;-77
2023/06/12 03:42:41;;;;;;;0.60;0.60;;;26.70;50.30;;;;;;5016869;28;20076;-77
2023/06/12 03:45:10;;;;;;;0.65;0.65;;;26.80;50.30;;;;;;5030338;28;20099;-77
2023/06/12 03:47:36;;;;;;;0.90;0.90;;;26.70;50.30;;;;;;5014415;28;20515;-77
2023/06/12 03:50:10;;;;;;;0.70;0.70;;;26.70;50.30;;;;;;5013966;28;20100;-77
2023/06/12 03:52:36;;;;;;;0.70;0.70;;;26.70;50.40;;;;;;5014379;28;20051;-77
2023/06/12 03:55:02;;;;;;;0.60;0.60;;;26.70;50.50;;;;;;5030922;28;20069;-77
2023/06/12 03:57:28;;;;;;;3.10;1.00;;;26.70;50.60;;;;;;5014547;28;20059;-78
2023/06/12 03:59:54;;;;;;;0.73;0.73;;;26.70;50.60;;;;;;5043097;28;20484;-77
2023/06/12 04:02:21;;;;;;;0.60;0.60;;;26.70;50.60;;;;;;5027040;28;20080;-77
2023/06/12 04:04:47;;;;;;;1.42;0.70;;;26.70;50.60;;;;;;5030830;28;20448;-78
2023/06/12 04:07:14;;;;;;;0.60;0.60;;;26.70;50.60;;;;;;5012651;28;20034;-77
2023/06/12 04:09:41;;;;;;;1.20;0.98;;;26.80;50.60;;;;;;5028345;28;20478;-77
2023/06/12 04:12:07;;;;;;;0.52;0.52;;;26.70;50.60;;;;;;5014290;28;20052;-77
2023/06/12 04:14:33;;;;;;;0.50;0.45;;;26.80;50.60;;;;;;5030724;28;20045;-78
2023/06/12 04:16:59;;;;;;;0.70;0.70;;;26.80;50.60;;;;;;5050370;28;20128;-77
2023/06/12 04:19:26;;;;;;;0.70;0.70;;;26.80;50.60;;;;;;5017119;28;20086;-77
2023/06/12 04:21:52;;;;;;;1.00;0.60;;;26.80;50.60;;;;;;5033331;28;20048;-77
2023/06/12 04:24:19;;;;;;;0.65;0.52;;;26.90;50.70;;;;;;5028834;28;20362;-77
2023/06/12 04:26:46;;;;;;;0.50;0.50;;;26.90;50.70;;;;;;5020732;28;20042;-77
2023/06/12 04:29:14;;;;;;;1.55;0.70;;;26.80;50.70;;;;;;4992727;28;20093;-77
2023/06/12 04:31:41;;;;;;;0.70;0.70;;;26.90;50.60;;;;;;4985346;28;20076;-78
2023/06/12 04:34:07;;;;;;;0.93;0.50;;;26.90;50.70;;;;;;4975668;28;20543;-77
2023/06/12 04:36:37;;;;;;;0.82;0.50;;;26.90;50.60;;;;;;4981956;28;20043;-77
2023/06/12 04:39:10;;;;;;;0.82;0.70;;;27.00;51.20;;;;;;4979180;28;20100;-80
2023/06/12 04:41:37;;;;;;;0.30;0.30;;;26.90;50.30;;;;;;4994890;28;20042;-77
2023/06/12 04:44:06;;;;;;;0.30;0.30;;;26.90;48.60;;;;;;5026367;28;20335;-78
2023/06/12 04:46:35;;;;;;;0.38;0.38;;;26.90;47.80;;;;;;5034824;28;20049;-76
2023/06/12 04:49:02;;;;;;;0.40;0.40;;;26.90;47.90;;;;;;5026699;28;20068;-76
2023/06/12 04:51:28;;;;;;;0.30;0.30;;;27.00;51.00;;;;;;5026802;28;20470;-76
2023/06/12 04:53:55;;;;;;;0.30;0.30;;;27.00;51.90;;;;;;5014055;28;20037;-77
2023/06/12 04:56:21;;;;;;;0.75;0.75;;;27.10;52.00;;;;;;5018614;28;20037;-77
2023/06/12 04:58:49;;;;;;;0.93;0.82;;;27.10;51.70;;;;;;5069163;28;20111;-78
2023/06/12 05:01:19;;;;;;;1.60;1.30;;;27.00;50.90;;;;;;5054087;28;20546;-79
2023/06/12 05:03:52;;;;;;;0.77;0.70;;;27.30;52.10;;;;;;5054095;28;20056;-77
2023/06/12 05:06:18;;;;;;;3.70;1.30;;;27.20;50.90;;;;;;5058399;28;20052;-77
2023/06/12 05:08:47;;;;;;;1.10;1.00;;;27.30;49.50;;;;;;5071267;28;20476;-77
2023/06/12 05:11:13;;;;;;;0.95;0.95;;;27.20;48.70;;;;;;5016002;28;20414;-78
2023/06/12 05:13:39;;;;;;;2.85;1.70;;;27.30;48.20;;;;;;5030602;28;20044;-77
2023/06/12 05:16:06;;;;;;;3.03;2.72;;;27.40;48.30;;;;;;5010978;28;20426;-77
2023/06/12 05:18:32;;;;;;;7.28;5.70;;;27.40;49.60;;;;;;5005121;28;20041;-75
2023/06/12 05:20:59;;;;;;;5.10;3.00;;;27.40;48.90;;;;;;5010880;28;20096;-74
2023/06/12 05:23:26;;;;;;;3.17;2.42;;;27.40;47.70;;;;;;5015483;28;20480;-76
2023/06/12 05:25:51;;;;;;;2.22;2.03;;;27.40;47.30;;;;;;5021054;28;20049;-76
2023/06/12 05:28:18;;;;;;;1.63;0.80;;;27.40;46.80;;;;;;5028190;28;20136;-76
2023/06/12 05:30:47;;;;;;;1.67;0.77;;;27.30;46.20;;;;;;5006140;28;20057;-71
2023/06/12 05:33:13;;;;;;;2.45;0.60;;;27.40;45.80;;;;;;4992443;28;20045;-71
2023/06/12 05:35:39;;;;;;;1.13;1.10;;;27.40;45.70;;;;;;4992199;28;20084;-72
2023/06/12 05:38:06;;;;;;;1.55;0.40;;;27.50;45.30;;;;;;4992402;28;20157;-71
2023/06/12 05:40:34;;;;;;;0.60;0.60;;;27.50;45.30;;;;;;5028157;28;20084;-71
2023/06/12 05:43:00;;;;;;;0.93;0.60;;;27.50;45.40;;;;;;5011849;28;20493;-71
2023/06/12 05:45:26;;;;;;;0.70;0.70;;;27.50;45.50;;;;;;5047971;28;20540;-71
2023/06/12 05:47:52;;;;;;;0.50;0.50;;;27.50;44.70;;;;;;5033605;28;20052;-71
2023/06/12 05:50:18;;;;;;;2.00;0.60;;;27.50;44.00;;;;;;5052437;28;20044;-70
2023/06/12 05:52:44;;;;;;;0.70;0.70;;;27.50;43.60;;;;;;5052360;28;20456;-71
2023/06/12 05:55:10;;;;;;;0.50;0.50;;;27.50;43.20;;;;;;5035547;28;20037;-70
2023/06/12 05:57:36;;;;;;;1.00;0.75;;;27.50;42.70;;;;;;5052251;28;20395;-70
2023/06/12 06:00:05;;;;;;;1.67;0.90;;;27.40;42.60;;;;;;5052023;28;20037;-70
2023/06/12 06:02:42;;;;;;;1.75;0.70;;;27.50;42.60;;;;;;5067337;28;20179;-69
2023/06/12 06:05:11;;;;;;;1.30;0.90;;;27.30;42.70;;;;;;5054920;28;20078;-70
2023/06/12 06:07:38;;;;;;;1.17;0.93;;;27.30;42.80;;;;;;5055361;28;20094;-70
2023/06/12 06:10:05;;;;;;;2.83;0.90;;;27.50;42.80;;;;;;5055085;28;20051;-70
2023/06/12 06:12:31;;;;;;;2.00;0.70;;;27.40;42.70;;;;;;5055221;28;20080;-70
2023/06/12 06:14:57;;;;;;;2.67;0.90;;;27.50;42.60;;;;;;5055111;28;20075;-71
2023/06/12 06:17:23;;;;;;;3.83;0.80;;;27.40;42.50;;;;;;5052145;28;20049;-70
2023/06/12 06:19:50;;;;;;;3.45;1.20;;;27.40;42.40;;;;;;5053200;28;20095;-70
2023/06/12 06:22:17;;;;;;;0.80;0.80;;;27.40;42.30;;;;;;5053927;28;20081;-69
2023/06/12 06:24:44;;;;;;;2.05;1.10;;;27.40;42.20;;;;;;5052859;28;20039;-70
2023/06/12 06:27:13;;;;;;;1.77;0.73;;;27.40;42.10;;;;;;5052383;28;20479;-71
2023/06/12 06:29:40;;;;;;;1.17;0.82;;;27.40;42.10;;;;;;5036164;28;20049;-69
2023/06/12 06:32:06;;;;;;;1.02;0.70;;;27.50;43.20;;;;;;5052378;28;20033;-71
2023/06/12 06:34:35;;;;;;;3.63;1.40;;;27.50;45.40;;;;;;5052492;28;20036;-70
2023/06/12 06:37:01;;;;;;;1.55;1.10;;;27.70;49.00;;;;;;5070391;28;20511;-70
2023/06/12 06:39:27;;;;;;;1.98;1.15;;;27.60;48.90;;;;;;5072131;28;20406;-69
2023/06/12 06:41:53;;;;;;;3.50;1.23;;;27.70;48.60;;;;;;5072042;28;20093;-70
2023/06/12 06:44:19;;;;;;;2.72;1.02;;;27.60;50.90;;;;;;5060268;28;20119;-70
2023/06/12 06:46:47;;;;;;;2.05;1.42;;;27.70;49.50;;;;;;5028088;28;20075;-70
2023/06/12 06:49:14;;;;;;;1.20;1.15;;;27.70;48.20;;;;;;5032124;28;20033;-73
2023/06/12 06:51:41;;;;;;;0.95;0.93;;;27.60;48.60;;;;;;5033694;28;20040;-70
2023/06/12 06:54:07;;;;;;;1.02;0.80;;;27.80;47.50;;;;;;5065481;28;20041;-71
2023/06/12 06:56:33;;;;;;;5.10;1.55;;;27.60;46.00;;;;;;5046814;28;20373;-71
2023/06/12 06:58:59;;;;;;;0.80;0.80;;;27.90;46.60;;;;;;5052003;28;20041;-71
2023/06/12 07:01:25;;;;;;;3.28;0.80;;;28.10;47.50;;;;;;5080257;28;20029;-78
2023/06/12 07:03:51;;;;;;;11.48;1.25;;;28.10;43.40;;;;;;5048593;28;20123;-76
2023/06/12 07:06:18;;;;;;;0.60;0.60;;;28.10;41.50;;;;;;5047620;28;20114;-78
2023/06/12 07:08:44;;;;;;;0.47;0.47;;;27.90;40.70;;;;;;5052559;28;20025;-77
2023/06/12 07:11:10;;;;;;;1.10;0.50;;;28.00;42.50;;;;;;5025473;28;20033;-77
2023/06/12 07:13:40;;;;;;;1.30;1.00;;;28.00;43.80;;;;;;5033623;28;20033;-77
2023/06/12 07:16:06;;;;;;;3.58;0.85;;;28.00;45.50;;;;;;5054331;28;20067;-77
2023/06/12 07:18:32;;;;;;;0.57;0.57;;;28.00;47.20;;;;;;5071054;28;20029;-77
2023/06/12 07:21:01;;;;;;;1.65;0.80;;;28.00;47.00;;;;;;5035680;28;20059;-74
2023/06/12 07:23:27;;;;;;;0.80;0.60;;;28.30;47.40;;;;;;5053144;28;20029;-75
2023/06/12 07:25:53;;;;;;;0.60;0.60;;;28.10;47.70;;;;;;5009768;28;20039;-76
2023/06/12 07:28:19;;;;;;;2.13;0.60;;;28.20;46.70;;;;;;5070766;28;20102;-75
2023/06/12 07:30:45;;;;;;;1.70;0.70;;;28.20;46.30;;;;;;5059179;28;20078;-74
2023/06/12 07:33:11;;;;;;;3.50;0.80;;;28.20;46.40;;;;;;5037813;28;20033;-75
2023/06/12 07:35:39;;;;;;;0.55;0.55;;;28.20;46.10;;;;;;5049046;28;20089;-75
2023/06/12 07:38:05;;;;;;;0.80;0.65;;;28.20;45.80;;;;;;5061629;28;20024;-75
2023/06/12 07:40:31;;;;;;;0.60;0.60;;;28.30;43.70;;;;;;5063631;28;20420;-77
2023/06/12 07:42:59;;;;;;;3.20;0.70;;;28.10;42.90;;;;;;5066002;28;20089;-77
2023/06/12 07:45:25;;;;;;;1.27;0.50;;;28.20;40.80;;;;;;5050845;28;20033;-74
2023/06/12 07:47:55;;;;;;;0.75;0.70;;;28.10;41.60;;;;;;5038752;28;20189;-77
2023/06/12 07:50:24;;;;;;;2.03;0.47;;;28.10;41.70;;;;;;5051449;28;20021;-75
2023/06/12 07:52:51;;;;;;;0.40;0.40;;;28.00;41.60;;;;;;5048788;28;20365;-76
2023/06/12 07:55:18;;;;;;;2.15;0.70;;;28.10;41.20;;;;;;5031961;28;20026;-77
2023/06/12 07:57:44;;;;;;;0.68;0.60;;;28.10;41.10;;;;;;5031293;28;20038;-72
2023/06/12 08:00:11;;;;;;;1.23;0.60;;;28.00;41.00;;;;;;5031080;28;20370;-71
2023/06/12 08:02:54;;;;;;;2.13;0.80;;;27.90;40.40;;;;;;5032299;28;20061;-72
2023/06/12 08:05:25;;;;;;;0.50;0.50;;;28.00;40.90;;;;;;5014875;28;20131;-72
2023/06/12 08:07:52;;;;;;;1.08;0.50;;;27.90;40.30;;;;;;5030560;28;20092;-72
2023/06/12 08:10:18;;;;;;;1.75;0.60;;;27.90;40.30;;;;;;5054165;28;20063;-72
2023/06/12 08:12:45;;;;;;;4.57;0.57;;;27.90;40.40;;;;;;5070530;28;20033;-71
2023/06/12 08:15:11;;;;;;;1.75;0.65;;;27.90;40.50;;;;;;5070292;28;20025;-71
2023/06/12 08:17:41;;;;;;;1.00;0.70;;;27.90;40.50;;;;;;5071763;28;20123;-71
2023/06/12 08:20:11;;;;;;;1.00;0.90;;;27.80;40.60;;;;;;5070318;28;20050;-71
2023/06/12 08:22:37;;;;;;;0.40;0.40;;;28.00;41.20;;;;;;5070397;28;20052;-71
2023/06/12 08:25:05;;;;;;;3.03;0.93;;;27.80;40.70;;;;;;5070192;28;20036;-72
2023/06/12 08:27:31;;;;;;;1.17;1.00;;;27.80;40.70;;;;;;5053634;28;20040;-71
2023/06/12 08:29:57;;;;;;;1.65;0.82;;;27.80;40.80;;;;;;5037134;28;20491;-71
2023/06/12 08:32:23;;;;;;;0.55;0.50;;;27.90;40.90;;;;;;5070660;28;20069;-71
2023/06/12 08:34:50;;;;;;;0.77;0.70;;;27.80;41.30;;;;;;5070458;28;20039;-71
2023/06/12 08:37:18;;;;;;;2.35;0.60;;;27.80;41.10;;;;;;5069947;28;20111;-71
2023/06/12 08:39:44;;;;;;;0.88;0.63;;;27.70;41.10;;;;;;5071152;28;20051;-71
2023/06/12 08:42:17;;;;;;;0.50;0.50;;;27.80;41.10;;;;;;5070216;28;20199;-71
2023/06/12 08:44:45;;;;;;;2.75;0.60;;;27.60;41.20;;;;;;5049057;28;20619;-71
2023/06/12 08:47:13;;;;;;;1.08;0.60;;;27.70;41.00;;;;;;5032065;28;20084;-72
2023/06/12 08:49:39;;;;;;;3.03;0.90;;;27.60;41.00;;;;;;5048742;28;20522;-71
2023/06/12 08:52:06;;;;;;;1.38;0.60;;;27.50;41.00;;;;;;5048657;28;20111;-71
2023/06/12 08:54:36;;;;;;;5.97;0.70;;;27.50;41.20;;;;;;5048862;28;20567;-72
2023/06/12 08:57:06;;;;;;;1.98;0.93;;;27.60;41.60;;;;;;5048604;28;20037;-71
2023/06/12 08:59:32;;;;;;;0.93;0.60;;;27.50;41.60;;;;;;5045411;28;20057;-70
2023/06/12 09:01:59;;;;;;;0.90;0.60;;;27.40;41.50;;;;;;4995226;28;20080;-71
2023/06/12 09:04:48;;;;;;;0.47;0.47;;;27.50;41.50;;;;;;5028305;28;20460;-72
2023/06/12 09:07:17;;;;;;;1.77;0.80;;;27.40;41.50;;;;;;5012035;28;20120;-70
2023/06/12 09:09:45;;;;;;;1.23;0.80;;;27.40;41.60;;;;;;5034819;28;20114;-70
2023/06/12 09:12:12;;;;;;;1.90;0.90;;;27.40;41.50;;;;;;5048531;28;20045;-71
2023/06/12 09:14:40;;;;;;;0.40;0.40;;;27.40;41.60;;;;;;5049801;28;20041;-71
2023/06/12 09:17:10;;;;;;;2.90;0.80;;;27.50;41.70;;;;;;5070937;28;20766;-70
2023/06/12 09:19:46;;;;;;;0.63;0.47;;;27.50;41.70;;;;;;5071057;28;20467;-70
2023/06/12 09:22:12;;;;;;;0.70;0.70;;;27.40;41.70;;;;;;5073487;28;20408;-69
2023/06/12 09:24:40;;;;;;;1.17;0.60;;;27.30;41.80;;;;;;5057176;28;20058;-71
2023/06/12 09:27:06;;;;;;;0.65;0.52;;;27.40;41.80;;;;;;5074772;28;20386;-70
2023/06/12 09:29:34;;;;;;;0.73;0.73;;;27.40;41.80;;;;;;5075051;28;20040;-70
2023/06/12 09:32:04;;;;;;;0.77;0.60;;;27.30;41.80;;;;;;5075109;28;20075;-71
2023/06/12 09:34:36;;;;;;;1.98;1.00;;;27.30;41.90;;;;;;5075036;28;20037;-70
2023/06/12 09:37:09;;;;;;;1.90;0.70;;;27.40;41.90;;;;;;5074690;28;20318;-71
2023/06/12 09:39:35;;;;;;;2.03;0.80;;;27.40;42.00;;;;;;5074687;28;20090;-70
2023/06/12 09:42:02;;;;;;;0.68;0.55;;;27.30;42.00;;;;;;5074795;28;20070;-71
2023/06/12 09:44:30;;;;;;;0.60;0.60;;;27.30;42.20;;;;;;5073653;28;20039;-71
2023/06/12 09:47:01;;;;;;;0.43;0.43;;;27.10;42.20;;;;;;5074544;28;20037;-71
2023/06/12 09:49:27;;;;;;;1.40;0.68;;;27.20;42.30;;;;;;5074651;28;20394;-71
2023/06/12 09:51:54;;;;;;;0.70;0.70;;;27.20;42.40;;;;;;5074682;28;20036;-71
2023/06/12 09:54:22;;;;;;;3.15;0.77;;;27.10;42.30;;;;;;5057158;28;20029;-70
2023/06/12 09:56:53;;;;;;;0.93;0.50;;;27.10;42.30;;;;;;5054835;28;20094;-70
2023/06/12 09:59:22;;;;;;;0.80;0.80;;;27.00;42.30;;;;;;5054716;28;20110;-70
2023/06/12 10:01:52;;;;;;;1.25;0.80;;;27.00;42.30;;;;;;5054680;28;20025;-71
2023/06/12 10:04:42;;;;;;;0.52;0.47;;;27.00;42.50;;;;;;5054508;28;20025;-71
2023/06/12 10:07:28;;;;;;;0.82;0.60;;;27.00;42.40;;;;;;5054503;28;20056;-70
2023/06/12 10:09:55;;;;;;;1.38;0.80;;;27.00;42.40;;;;;;5054646;28;20028;-70
2023/06/12 10:12:23;;;;;;;0.73;0.73;;;27.00;42.40;;;;;;5054294;28;20492;-71
2023/06/12 10:14:50;;;;;;;0.60;0.50;;;27.00;42.40;;;;;;5054759;28;20025;-70
2023/06/12 10:17:17;;;;;;;0.80;0.80;;;27.10;42.40;;;;;;5054046;28;20029;-71
2023/06/12 10:19:47;;;;;;;0.60;0.60;;;27.00;42.40;;;;;;5054197;28;20128;-69
2023/06/12 10:22:13;;;;;;;0.47;0.47;;;27.00;42.40;;;;;;5052896;28;20131;-71
2023/06/12 10:24:40;;;;;;;0.68;0.68;;;27.00;42.40;;;;;;5053959;28;20064;-70
2023/06/12 10:27:07;;;;;;;0.55;0.55;;;27.00;42.50;;;;;;5053768;28;20045;-70
2023/06/12 10:29:36;;;;;;;1.25;0.55;;;27.00;42.30;;;;;;5053772;28;20029;-70
2023/06/12 10:32:06;;;;;;;0.40;0.40;;;27.10;42.30;;;;;;5053685;28;20040;-70
2023/06/12 10:34:40;;;;;;;0.50;0.50;;;27.20;42.30;;;;;;5053161;28;20033;-68
2023/06/12 10:37:30;;;;;;;5.07;0.85;;;27.20;42.70;;;;;;5052231;28;20527;-69
2023/06/12 10:40:12;;;;;;;0.70;0.70;;;27.20;42.90;;;;;;5053452;28;20041;-70
2023/06/12 10:42:39;;;;;;;2.40;0.60;;;27.40;45.30;;;;;;5053614;28;20037;-70
2023/06/12 10:45:23;;;;;;;0.40;0.40;;;27.40;42.90;;;;;;5052377;28;20449;-70
2023/06/12 10:48:02;;;;;;;0.52;0.52;;;27.40;41.80;;;;;;5053491;28;20544;-71
2023/06/12 10:50:29;;;;;;;0.73;0.73;;;27.30;40.80;;;;;;5052329;28;20423;-70
2023/06/12 10:52:56;;;;;;;0.50;0.50;;;27.30;41.20;;;;;;5053515;28;20380;-71
2023/06/12 10:55:29;;;;;;;0.50;0.50;;;27.20;40.00;;;;;;5052305;28;20033;-71
2023/06/12 10:57:59;;;;;;;0.55;0.50;;;27.20;40.90;;;;;;5052020;28;20040;-70
2023/06/12 11:00:31;;;;;;;0.40;0.40;;;27.20;40.80;;;;;;5053409;28;20044;-70
2023/06/12 11:03:02;;;;;;;0.40;0.40;;;27.30;40.70;;;;;;5050888;28;20045;-70
2023/06/12 11:05:30;;;;;;;0.73;0.50;;;27.20;39.90;;;;;;5050130;28;20187;-70
2023/06/12 11:07:57;;;;;;;0.45;0.45;;;27.10;39.80;;;;;;5033568;28;20120;-70
2023/06/12 11:10:23;;;;;;;1.08;0.50;;;27.20;39.70;;;;;;5052263;28;20098;-69
2023/06/12 11:12:51;;;;;;;0.47;0.47;;;27.10;40.50;;;;;;5050689;28;20044;-70
2023/06/12 11:15:18;;;;;;;0.47;0.47;;;27.00;40.80;;;;;;5050395;28;20044;-70
2023/06/12 11:17:44;;;;;;;12.60;0.95;;;27.10;40.80;;;;;;5050523;28;20049;-70
2023/06/12 11:20:11;;;;;;;3.42;0.70;;;27.30;40.80;;;;;;5050448;28;20349;-70
2023/06/12 11:22:37;;;;;;;0.50;0.50;;;27.20;42.40;;;;;;5050471;28;20045;-71
2023/06/12 11:25:04;;;;;;;2.75;0.82;;;27.20;42.30;;;;;;5050410;28;20385;-71
2023/06/12 11:27:30;;;;;;;0.95;0.55;;;27.20;42.30;;;;;;5050118;28;20043;-78
2023/06/12 11:30:13;;;;;;;6.72;0.82;;;27.10;41.90;;;;;;5048044;28;20075;-76
2023/06/12 11:32:40;;;;;;;6.55;0.73;;;27.20;40.90;;;;;;5040995;28;20037;-76
2023/06/12 11:35:09;;;;;;;0.93;0.70;;;27.20;40.30;;;;;;5069429;28;20049;-78
2023/06/12 11:37:37;;;;;;;1.75;1.00;;;27.20;41.40;;;;;;5051066;28;20029;-76
2023/06/12 11:40:09;;;;;;;3.10;0.68;;;27.30;42.30;;;;;;5033664;28;20486;-79
2023/06/12 11:42:37;;;;;;;2.15;0.52;;;27.50;41.60;;;;;;5034308;28;20069;-76
2023/06/12 11:45:10;;;;;;;0.57;0.57;;;27.60;41.40;;;;;;5047385;28;20100;-78
2023/06/12 11:47:37;;;;;;;;;;;27.50;42.10;;;;;;5064568;28;20417;-80
2023/06/12 11:50:08;;;;;;;0.47;0.47;;;27.70;44.70;;;;;;5066265;28;19932;-78
2023/06/12 11:52:37;;;;;;;0.98;0.70;;;27.70;46.50;;;;;;5033431;28;20037;-79
2023/06/12 11:55:06;;;;;;;2.28;0.50;;;27.70;46.30;;;;;;5050076;28;20585;-79
2023/06/12 11:57:32;;;;;;;0.70;0.70;;;27.70;47.10;;;;;;5031905;28;20478;-79
2023/06/12 11:59:59;;;;;;;1.08;0.77;;;27.80;46.70;;;;;;5032002;28;20464;-80
2023/06/12 12:02:31;;;;;;;2.13;1.77;;;27.70;45.50;;;;;;5039995;28;20397;-76
2023/06/12 12:05:04;;;;;;;1.58;1.00;;;27.80;48.10;;;;;;5035874;28;20028;-78
2023/06/12 12:07:31;;;;;;;1.30;1.00;;;27.90;46.50;;;;;;5049733;28;20132;-77
2023/06/12 12:10:14;;;;;;;1.50;1.10;;;28.00;45.80;;;;;;5046829;28;20408;-76
2023/06/12 12:12:48;;;;;;;2.00;1.25;;;27.60;45.10;;;;;;5050841;28;20037;-78
2023/06/12 12:15:25;;;;;;;1.85;1.55;;;27.80;44.20;;;;;;5039651;28;20047;-76
2023/06/12 12:17:52;;;;;;;2.20;0.95;;;27.90;46.10;;;;;;5050267;28;20139;-79
2023/06/12 12:20:23;;;;;;;1.10;1.02;;;27.90;47.60;;;;;;5059284;28;20474;-79
2023/06/12 12:23:03;;;;;;;1.60;0.90;;;27.70;48.70;;;;;;5015348;28;20044;-77
2023/06/12 12:25:31;;;;;;;0.80;0.68;;;27.80;50.10;;;;;;5036786;28;20056;-77
2023/06/12 12:28:03;;;;;;;0.88;0.88;;;27.70;50.70;;;;;;5033969;28;20482;-78
2023/06/12 12:30:30;;;;;;;0.52;0.52;;;27.80;49.30;;;;;;5041198;28;20025;-79
2023/06/12 12:32:57;;;;;;;0.70;0.70;;;28.00;44.60;;;;;;5032095;28;20485;-78
2023/06/12 12:35:25;;;;;;;1.70;0.60;;;27.80;41.50;;;;;;5042766;28;20038;-75
2023/06/12 12:37:53;;;;;;;0.80;0.80;;;27.70;40.60;;;;;;5051641;28;20484;-76
2023/06/12 12:40:21;;;;;;;0.90;0.90;;;27.70;40.60;;;;;;5036386;28;20476;-75
2023/06/12 12:42:48;;;;;;;1.25;0.98;;;27.60;39.70;;;;;;5035566;28;20044;-76
2023/06/12 12:45:16;;;;;;;0.70;0.70;;;27.70;41.00;;;;;;5032484;28;20033;-75
2023/06/12 12:47:49;;;;;;;0.75;0.75;;;27.70;40.30;;;;;;5035678;28;20029;-75
2023/06/12 12:50:17;;;;;;;0.90;0.63;;;27.60;39.30;;;;;;5041883;28;20097;-75
2023/06/12 12:52:44;;;;;;;0.70;0.70;;;27.50;40.20;;;;;;5045465;28;20025;-74
2023/06/12 12:55:13;;;;;;;1.00;0.65;;;27.40;40.40;;;;;;5041075;28;20033;-75